createdAt,value
2023-08-15T00:01:01.645Z,100928.47
2023-08-15T00:03:28.517Z,100932.47
2023-08-15T00:05:55.162Z,100923.97
2023-08-15T00:08:21.720Z,100920.06
2023-08-15T00:10:48.258Z,100917.56
2023-08-15T00:13:16.194Z,100918.88
2023-08-15T00:15:42.769Z,100920.34
2023-08-15T00:18:09.332Z,100920.78
2023-08-15T00:20:35.940Z,100927.50
2023-08-15T00:23:02.475Z,100929.56
2023-08-15T00:25:29.022Z,100934.97
2023-08-15T00:27:55.666Z,100930.34
2023-08-15T00:30:23.564Z,100922.50
2023-08-15T00:32:50.190Z,100924.59
2023-08-15T00:35:16.859Z,100932.69
2023-08-15T00:37:43.401Z,100936.44
2023-08-15T00:40:10.876Z,100935.84
2023-08-15T00:42:37.416Z,100934.19
2023-08-15T00:45:04.377Z,100938.38
2023-08-15T00:47:32.320Z,100936.13
2023-08-15T00:49:59.711Z,100934.69
2023-08-15T00:52:26.847Z,100935.97
2023-08-15T00:54:54.479Z,100940.56
2023-08-15T00:57:22.740Z,100934.31
2023-08-15T00:59:49.599Z,100924.56
2023-08-15T01:02:16.247Z,100918.13
2023-08-15T01:04:44.767Z,100919.16
2023-08-15T01:07:11.791Z,100922.09
2023-08-15T01:09:38.746Z,100913.16
2023-08-15T01:12:16.649Z,100901.75
2023-08-15T01:14:49.500Z,100900.31
2023-08-15T01:17:21.593Z,100896.19
2023-08-15T01:19:51.327Z,100893.09
2023-08-15T01:22:22.713Z,100901.66
2023-08-15T01:24:50.834Z,100900.00
2023-08-15T01:27:17.411Z,100917.00
2023-08-15T01:29:43.953Z,100926.56
2023-08-15T01:32:17.183Z,100940.66
2023-08-15T01:34:47.559Z,100949.59
2023-08-15T01:37:21.292Z,100968.50
2023-08-15T01:39:51.939Z,100973.44
2023-08-15T01:42:21.922Z,100982.59
2023-08-15T01:44:48.933Z,100975.56
2023-08-15T01:47:15.628Z,100971.00
2023-08-15T01:49:42.198Z,100965.91
2023-08-15T01:52:08.762Z,100966.31
2023-08-15T01:54:35.486Z,100977.41
2023-08-15T01:57:03.585Z,100988.00
2023-08-15T01:59:30.392Z,100993.88
2023-08-15T02:01:56.963Z,100992.84
2023-08-15T02:04:23.612Z,101000.53
2023-08-15T02:06:50.151Z,100987.50
2023-08-15T02:09:17.393Z,100985.47
2023-08-15T02:11:43.966Z,101000.41
2023-08-15T02:14:11.816Z,101005.63
2023-08-15T02:16:38.363Z,101014.56
2023-08-15T02:19:04.912Z,101014.56
2023-08-15T02:21:31.475Z,101028.47
2023-08-15T02:23:58.013Z,101025.41
2023-08-15T02:26:24.536Z,101012.75
2023-08-15T02:28:51.052Z,101022.09
2023-08-15T02:31:18.986Z,101033.72
2023-08-15T02:33:45.624Z,101037.06
2023-08-15T02:36:12.305Z,101028.16
2023-08-15T02:38:38.843Z,101018.81
2023-08-15T02:41:05.380Z,101023.38
2023-08-15T02:43:31.933Z,101019.03
2023-08-15T02:45:58.633Z,101019.84
2023-08-15T02:48:26.503Z,101033.13
2023-08-15T02:50:53.048Z,101032.28
2023-08-15T02:53:19.633Z,101031.25
2023-08-15T02:55:50.392Z,101035.63
2023-08-15T02:58:16.951Z,101040.78
2023-08-15T03:00:43.955Z,101044.31
2023-08-15T03:03:10.613Z,101044.94
2023-08-15T03:05:39.117Z,101049.31
2023-08-15T03:08:06.244Z,101045.34
2023-08-15T03:10:33.119Z,101043.28
2023-08-15T03:12:59.685Z,101032.94
2023-08-15T03:15:26.212Z,101035.44
2023-08-15T03:17:52.760Z,101027.56
2023-08-15T03:20:19.351Z,101026.56
2023-08-15T03:22:47.196Z,101027.78
2023-08-15T03:25:13.811Z,101030.06
2023-08-15T03:27:40.353Z,101031.75
2023-08-15T03:30:08.061Z,101029.28
2023-08-15T03:32:34.666Z,101024.91
2023-08-15T03:35:01.424Z,101021.41
2023-08-15T03:37:27.995Z,101022.22
2023-08-15T03:39:55.937Z,101019.75
2023-08-15T03:42:22.522Z,101012.88
2023-08-15T03:44:49.048Z,101009.41
2023-08-15T03:47:15.586Z,101009.38
2023-08-15T03:49:42.275Z,101007.06
2023-08-15T03:52:08.840Z,101007.50
2023-08-15T03:54:35.376Z,101011.44
2023-08-15T03:57:03.755Z,101017.66
2023-08-15T03:59:30.466Z,101025.34
2023-08-15T04:01:59.058Z,101021.00
2023-08-15T04:04:25.916Z,101030.94
2023-08-15T04:06:52.412Z,101040.47
2023-08-15T04:09:19.085Z,101033.63
2023-08-15T04:11:45.830Z,101043.38
2023-08-15T04:14:13.720Z,101040.25
2023-08-15T04:16:40.277Z,101039.66
2023-08-15T04:19:06.984Z,101034.69
2023-08-15T04:21:33.565Z,101037.56
2023-08-15T04:24:00.097Z,101044.19
2023-08-15T04:26:26.625Z,101055.59
2023-08-15T04:28:53.209Z,101056.22
2023-08-15T04:31:21.122Z,101063.28
2023-08-15T04:33:47.677Z,101061.63
2023-08-15T04:36:14.244Z,101063.91
2023-08-15T04:38:40.776Z,101064.09
2023-08-15T04:41:07.372Z,101082.94
2023-08-15T04:43:33.920Z,101078.41
2023-08-15T04:46:00.485Z,101086.25
2023-08-15T04:48:28.418Z,101083.16
2023-08-15T04:50:54.933Z,101088.75
2023-08-15T04:53:21.516Z,101086.25
2023-08-15T04:55:48.037Z,101093.69
2023-08-15T04:58:14.549Z,101096.81
2023-08-15T05:00:41.086Z,101103.00
2023-08-15T05:03:07.639Z,101105.09
2023-08-15T05:05:35.618Z,101112.53
2023-08-15T05:08:02.179Z,101118.53
2023-08-15T05:10:28.702Z,101128.06
2023-08-15T05:12:55.383Z,101131.59
2023-08-15T05:15:21.898Z,101128.47
2023-08-15T05:17:48.448Z,101134.03
2023-08-15T05:20:14.990Z,101137.75
2023-08-15T05:22:42.855Z,101143.53
2023-08-15T05:25:09.514Z,101143.53
2023-08-15T05:27:36.070Z,101146.03
2023-08-15T05:30:02.606Z,101144.81
2023-08-15T05:32:29.179Z,101147.09
2023-08-15T05:34:55.750Z,101151.84
2023-08-15T05:37:22.649Z,101146.09
2023-08-15T05:39:50.944Z,101144.44
2023-08-15T05:42:17.488Z,101142.16
2023-08-15T05:44:44.204Z,101146.94
2023-08-15T05:47:10.720Z,101136.38
2023-08-15T05:49:37.230Z,101142.00
2023-08-15T05:52:04.191Z,101150.28
2023-08-15T05:54:30.702Z,101156.91
2023-08-15T05:56:58.607Z,101160.66
2023-08-15T05:59:25.190Z,101171.00
2023-08-15T06:01:51.736Z,101165.66
2023-08-15T06:04:18.292Z,101169.38
2023-08-15T06:06:44.893Z,101169.41
2023-08-15T06:09:11.473Z,101171.91
2023-08-15T06:11:38.005Z,101176.44
2023-08-15T06:14:05.981Z,101175.00
2023-08-15T06:16:32.590Z,101186.81
2023-08-15T06:18:59.124Z,101178.94
2023-08-15T06:21:25.684Z,101176.47
2023-08-15T06:23:52.196Z,101185.56
2023-08-15T06:26:18.711Z,101180.41
2023-08-15T06:28:45.266Z,101184.94
2023-08-15T06:31:13.236Z,101185.97
2023-08-15T06:33:39.839Z,101178.06
2023-08-15T06:36:06.607Z,101185.53
2023-08-15T06:38:33.171Z,101180.53
2023-08-15T06:40:59.735Z,101176.38
2023-08-15T06:43:26.363Z,101176.34
2023-08-15T06:45:52.868Z,101180.53
2023-08-15T06:48:20.766Z,101173.91
2023-08-15T06:50:47.767Z,101183.00
2023-08-15T06:53:14.435Z,101191.50
2023-08-15T06:55:40.953Z,101201.06
2023-08-15T06:58:07.499Z,101202.09
2023-08-15T07:00:34.086Z,101200.84
2023-08-15T07:03:00.790Z,101202.88
2023-08-15T07:05:28.741Z,101192.31
2023-08-15T07:07:55.262Z,101191.25
2023-08-15T07:10:21.775Z,101205.81
2023-08-15T07:12:48.288Z,101200.59
2023-08-15T07:15:14.978Z,101203.31
2023-08-15T07:17:41.566Z,101211.19
2023-08-15T07:20:09.156Z,101213.66
2023-08-15T07:22:37.050Z,101224.19
2023-08-15T07:25:03.847Z,101228.09
2023-08-15T07:27:30.374Z,101222.03
2023-08-15T07:29:57.173Z,101223.22
2023-08-15T07:32:23.894Z,101232.34
2023-08-15T07:34:50.749Z,101221.88
2023-08-15T07:37:17.286Z,101228.25
2023-08-15T07:39:45.174Z,101228.25
2023-08-15T07:42:11.783Z,101226.59
2023-08-15T07:44:38.331Z,101239.25
2023-08-15T07:47:05.207Z,101241.69
2023-08-15T07:49:32.124Z,101226.84
2023-08-15T07:51:58.787Z,101237.56
2023-08-15T07:54:25.333Z,101239.41
2023-08-15T07:56:53.199Z,101235.38
2023-08-15T07:59:19.788Z,101236.16
2023-08-15T08:01:46.396Z,101236.69
2023-08-15T08:04:12.982Z,101251.25
2023-08-15T08:06:41.380Z,101242.59
2023-08-15T08:09:08.909Z,101245.84
2023-08-15T08:11:35.440Z,101244.16
2023-08-15T08:14:03.626Z,101253.00
2023-08-15T08:16:30.693Z,101244.66
2023-08-15T08:18:57.300Z,101247.38
2023-08-15T08:21:23.899Z,101254.16
2023-08-15T08:23:50.449Z,101258.16
2023-08-15T08:26:17.000Z,101260.56
2023-08-15T08:28:43.550Z,101253.06
2023-08-15T08:31:11.419Z,101259.06
2023-08-15T08:33:37.920Z,101256.13
2023-08-15T08:36:05.054Z,101256.34
2023-08-15T08:38:31.589Z,101246.06
2023-08-15T08:40:58.503Z,101252.28
2023-08-15T08:43:25.488Z,101253.25
2023-08-15T08:45:56.836Z,101254.81
2023-08-15T08:48:24.748Z,101253.69
2023-08-15T08:50:52.008Z,101250.38
2023-08-15T08:53:18.592Z,101256.84
2023-08-15T08:55:48.743Z,101245.47
2023-08-15T08:58:15.634Z,101241.84
2023-08-15T09:00:42.669Z,101236.91
2023-08-15T09:03:09.721Z,101244.06
2023-08-15T09:05:37.982Z,101251.03
2023-08-15T09:08:05.155Z,101245.03
2023-08-15T09:10:31.890Z,101247.31
2023-08-15T09:12:59.554Z,101239.66
2023-08-15T09:15:26.370Z,101243.44
2023-08-15T09:17:59.085Z,101243.22
2023-08-15T09:20:25.865Z,101257.44
2023-08-15T09:22:57.114Z,101259.31
2023-08-15T09:25:24.820Z,101262.34
2023-08-15T09:27:51.339Z,101264.59
2023-08-15T09:30:18.657Z,101272.38
2023-08-15T09:32:46.798Z,101269.44
2023-08-15T09:35:15.239Z,101272.59
2023-08-15T09:37:42.342Z,101275.91
2023-08-15T09:40:12.581Z,101284.31
2023-08-15T09:42:39.309Z,101290.09
2023-08-15T09:45:08.524Z,101287.97
2023-08-15T09:47:37.974Z,101296.22
2023-08-15T09:50:06.067Z,101300.72
2023-08-15T09:52:32.609Z,101303.66
2023-08-15T09:54:59.455Z,101311.59
2023-08-15T09:57:27.440Z,101313.50
2023-08-15T09:59:54.007Z,101303.94
2023-08-15T10:02:23.424Z,101306.31
2023-08-15T10:04:57.300Z,101301.56
2023-08-15T10:07:26.227Z,101308.44
2023-08-15T10:09:54.069Z,101311.25
2023-08-15T10:12:21.325Z,101317.03
2023-08-15T10:14:50.017Z,101317.03
2023-08-15T10:17:17.689Z,101329.31
2023-08-15T10:19:46.650Z,101330.63
2023-08-15T10:22:18.161Z,101333.94
2023-08-15T10:24:44.879Z,101333.56
2023-08-15T10:27:13.852Z,101334.97
2023-08-15T10:29:55.048Z,101332.59
2023-08-15T10:32:24.507Z,101329.19
2023-08-15T10:34:53.627Z,101325.28
2023-08-15T10:37:27.471Z,101327.06
2023-08-15T10:40:06.595Z,101328.97
2023-08-15T10:43:06.507Z,101332.81
2023-08-15T10:45:36.442Z,101323.72
2023-08-15T10:48:05.831Z,101324.94
2023-08-15T10:50:33.732Z,101332.25
2023-08-15T10:53:01.663Z,101329.88
2023-08-15T10:55:29.454Z,101334.47
2023-08-15T10:57:56.680Z,101336.84
2023-08-15T11:00:24.349Z,101339.28
2023-08-15T11:02:52.781Z,101337.75
2023-08-15T11:05:41.319Z,101345.53
2023-08-15T11:08:12.534Z,101342.22
2023-08-15T11:10:43.860Z,101342.16
2023-08-15T11:13:10.572Z,101337.63
2023-08-15T11:15:37.439Z,101341.41
2023-08-15T11:18:05.672Z,101339.13
2023-08-15T11:20:32.404Z,101339.53
2023-08-15T11:22:59.378Z,101348.41
2023-08-15T11:25:26.127Z,101351.00
2023-08-15T11:27:52.695Z,101333.84
2023-08-15T11:30:19.788Z,101340.22
2023-08-15T11:32:46.875Z,101338.09
2023-08-15T11:35:14.791Z,101340.09
2023-08-15T11:37:42.045Z,101350.00
2023-08-15T11:40:09.180Z,101345.16
2023-08-15T11:42:36.278Z,101346.88
2023-08-15T11:45:09.549Z,101343.84
2023-08-15T11:47:36.182Z,101349.97
2023-08-15T11:50:09.108Z,101345.59
2023-08-15T11:52:42.872Z,101343.94
2023-08-15T11:55:10.799Z,101347.75
2023-08-15T11:57:37.587Z,101345.84
2023-08-15T12:00:06.079Z,101347.81
2023-08-15T12:02:34.707Z,101349.56
2023-08-15T12:05:09.304Z,101347.19
2023-08-15T12:07:36.400Z,101344.19
2023-08-15T12:10:05.962Z,101346.31
2023-08-15T12:12:37.906Z,101342.69
2023-08-15T12:15:05.873Z,101345.72
2023-08-15T12:17:32.459Z,101341.03
2023-08-15T12:19:59.019Z,101337.31
2023-08-15T12:22:27.537Z,101334.72
2023-08-15T12:24:57.383Z,101330.53
2023-08-15T12:27:25.428Z,101331.94
2023-08-15T12:30:12.489Z,101332.91
2023-08-15T12:32:38.508Z,101336.31
2023-08-15T12:35:06.393Z,101329.44
2023-08-15T12:37:32.921Z,101331.41
2023-08-15T12:39:59.443Z,101330.91
2023-08-15T12:42:27.666Z,101328.28
2023-08-15T12:44:54.483Z,101331.44
2023-08-15T12:47:21.039Z,101334.75
2023-08-15T12:49:47.679Z,101331.59
2023-08-15T12:52:14.204Z,101332.16
2023-08-15T12:54:40.785Z,101330.97
2023-08-15T12:57:07.325Z,101324.94
2023-08-15T12:59:35.452Z,101327.28
2023-08-15T13:02:02.124Z,101327.66
2023-08-15T13:04:28.681Z,101322.34
2023-08-15T13:06:55.266Z,101323.56
2023-08-15T13:09:21.784Z,101322.75
2023-08-15T13:11:48.336Z,101324.97
2023-08-15T13:14:14.882Z,101328.88
2023-08-15T13:16:42.807Z,101326.41
2023-08-15T13:19:09.420Z,101327.88
2023-08-15T13:21:36.010Z,101329.31
2023-08-15T13:24:02.652Z,101321.94
2023-08-15T13:26:29.179Z,101325.66
2023-08-15T13:28:55.706Z,101327.13
2023-08-15T13:31:22.295Z,101330.03
2023-08-15T13:33:50.172Z,101327.84
2023-08-15T13:36:16.740Z,101326.53
2023-08-15T13:38:43.314Z,101323.56
2023-08-15T13:41:09.953Z,101324.25
2023-08-15T13:43:36.476Z,101329.78
2023-08-15T13:46:03.970Z,101328.22
2023-08-15T13:48:30.592Z,101333.69
2023-08-15T13:50:58.464Z,101338.78
2023-08-15T13:53:24.991Z,101330.19
2023-08-15T13:55:51.533Z,101339.09
2023-08-15T13:58:18.071Z,101333.88
2023-08-15T14:00:44.717Z,101325.22
2023-08-15T14:03:11.363Z,101331.34
2023-08-15T14:05:37.948Z,101323.84
2023-08-15T14:08:07.085Z,101324.75
2023-08-15T14:10:34.743Z,101326.78
2023-08-15T14:13:01.383Z,101321.31
2023-08-15T14:15:27.931Z,101328.13
2023-08-15T14:17:54.625Z,101326.34
2023-08-15T14:20:21.169Z,101317.19
2023-08-15T14:22:47.705Z,101325.47
2023-08-15T14:25:15.568Z,101323.81
2023-08-15T14:27:42.118Z,101327.13
2023-08-15T14:30:09.643Z,101321.53
2023-08-15T14:32:36.230Z,101327.56
2023-08-15T14:35:02.952Z,101327.41
2023-08-15T14:37:29.506Z,101321.78
2023-08-15T14:39:56.039Z,101324.81
2023-08-15T14:42:24.257Z,101325.41
2023-08-15T14:44:52.384Z,101317.47
2023-08-15T14:47:27.559Z,101321.88
2023-08-15T14:49:54.226Z,101315.06
2023-08-15T14:52:21.047Z,101323.56
2023-08-15T14:54:47.741Z,101321.09
2023-08-15T14:57:14.266Z,101324.59
2023-08-15T14:59:42.126Z,101321.88
2023-08-15T15:02:08.749Z,101320.25
2023-08-15T15:04:35.366Z,101313.97
2023-08-15T15:07:01.944Z,101318.84
2023-08-15T15:09:28.557Z,101323.22
2023-08-15T15:11:55.827Z,101320.25
2023-08-15T15:14:22.412Z,101322.19
2023-08-15T15:16:50.333Z,101323.56
2023-08-15T15:19:16.913Z,101318.84
2023-08-15T15:21:43.515Z,101324.53
2023-08-15T15:24:10.131Z,101317.44
2023-08-15T15:26:36.701Z,101318.50
2023-08-15T15:29:03.364Z,101322.56
2023-08-15T15:31:29.954Z,101329.09
2023-08-15T15:33:57.880Z,101325.03
2023-08-15T15:36:24.452Z,101331.31
2023-08-15T15:38:50.963Z,101329.16
2023-08-15T15:41:17.521Z,101330.72
2023-08-15T15:43:44.455Z,101335.09
2023-08-15T15:46:12.333Z,101343.88
2023-08-15T15:48:39.040Z,101341.09
2023-08-15T15:51:06.944Z,101342.56
2023-08-15T15:53:33.464Z,101339.13
2023-08-15T15:56:00.046Z,101345.22
2023-08-15T15:58:26.642Z,101336.84
2023-08-15T16:00:55.542Z,101339.25
2023-08-15T16:03:22.181Z,101344.03
2023-08-15T16:05:48.892Z,101337.19
2023-08-15T16:08:16.869Z,101336.25
2023-08-15T16:10:43.545Z,101332.78
2023-08-15T16:13:10.077Z,101341.13
2023-08-15T16:15:36.709Z,101338.16
2023-08-15T16:18:03.727Z,101336.56
2023-08-15T16:20:30.421Z,101350.34
2023-08-15T16:22:56.976Z,101345.03
2023-08-15T16:25:25.286Z,101349.91
2023-08-15T16:27:51.874Z,101352.78
2023-08-15T16:30:18.895Z,101350.16
2023-08-15T16:32:45.804Z,101349.97
2023-08-15T16:35:12.520Z,101353.91
2023-08-15T16:37:39.045Z,101346.97
2023-08-15T16:40:06.630Z,101349.22
2023-08-15T16:42:34.520Z,101348.88
2023-08-15T16:45:01.031Z,101345.50
2023-08-15T16:47:27.633Z,101346.78
2023-08-15T16:49:54.329Z,101347.53
2023-08-15T16:52:21.257Z,101350.06
2023-08-15T16:54:48.026Z,101356.94
2023-08-15T16:57:14.980Z,101356.56
2023-08-15T16:59:42.825Z,101364.66
2023-08-15T17:02:09.351Z,101373.75
2023-08-15T17:04:35.993Z,101366.94
2023-08-15T17:07:02.566Z,101370.38
2023-08-15T17:09:29.363Z,101361.88
2023-08-15T17:11:56.178Z,101363.22
2023-08-15T17:14:22.794Z,101368.97
2023-08-15T17:16:50.787Z,101372.16
2023-08-15T17:19:18.880Z,101370.94
2023-08-15T17:21:45.604Z,101372.28
2023-08-15T17:24:12.215Z,101377.16
2023-08-15T17:26:38.752Z,101384.16
2023-08-15T17:29:05.497Z,101387.91
2023-08-15T17:31:32.086Z,101392.28
2023-08-15T17:33:59.969Z,101396.44
2023-08-15T17:36:26.464Z,101389.56
2023-08-15T17:38:52.996Z,101400.91
2023-08-15T17:41:19.548Z,101392.97
2023-08-15T17:43:46.092Z,101397.66
2023-08-15T17:46:12.759Z,101404.59
2023-08-15T17:48:39.282Z,101398.63
2023-08-15T17:51:07.235Z,101408.59
2023-08-15T17:53:33.748Z,101408.44
2023-08-15T17:56:00.283Z,101405.50
2023-08-15T17:58:30.532Z,101413.59
2023-08-15T18:00:57.078Z,101415.72
2023-08-15T18:03:23.663Z,101407.44
2023-08-15T18:05:50.330Z,101412.94
2023-08-15T18:08:18.538Z,101423.22
2023-08-15T18:10:45.192Z,101418.19
2023-08-15T18:13:11.878Z,101423.03
2023-08-15T18:15:38.564Z,101425.56
2023-08-15T18:18:05.693Z,101430.31
2023-08-15T18:20:32.443Z,101432.88
2023-08-15T18:22:59.005Z,101431.09
2023-08-15T18:25:26.877Z,101440.13
2023-08-15T18:27:53.446Z,101440.84
2023-08-15T18:30:20.001Z,101444.97
2023-08-15T18:32:46.628Z,101437.81
2023-08-15T18:35:13.263Z,101440.97
2023-08-15T18:37:40.342Z,101446.41
2023-08-15T18:40:08.070Z,101451.31
2023-08-15T18:42:36.007Z,101445.94
2023-08-15T18:45:02.678Z,101455.06
2023-08-15T18:47:29.311Z,101453.50
2023-08-15T18:49:55.982Z,101452.47
2023-08-15T18:52:22.945Z,101463.53
2023-08-15T18:54:49.669Z,101469.16
2023-08-15T18:57:16.267Z,101474.91
2023-08-15T18:59:44.532Z,101475.00
2023-08-15T19:02:11.449Z,101481.78
2023-08-15T19:04:38.002Z,101479.31
2023-08-15T19:07:04.879Z,101483.09
2023-08-15T19:09:31.462Z,101489.00
2023-08-15T19:11:58.872Z,101497.38
2023-08-15T19:14:26.005Z,101501.81
2023-08-15T19:16:53.866Z,101504.53
2023-08-15T19:19:20.498Z,101508.78
2023-08-15T19:21:47.018Z,101508.63
2023-08-15T19:24:14.106Z,101521.97
2023-08-15T19:26:41.530Z,101522.00
2023-08-15T19:29:08.208Z,101527.44
2023-08-15T19:31:34.789Z,101533.31
2023-08-15T19:34:02.780Z,101536.22
2023-08-15T19:36:29.716Z,101529.16
2023-08-15T19:38:56.361Z,101537.31
2023-08-15T19:41:22.933Z,101539.63
2023-08-15T19:43:49.432Z,101537.53
2023-08-15T19:46:16.529Z,101547.94
2023-08-15T19:48:43.931Z,101557.50
2023-08-15T19:51:11.836Z,101553.56
2023-08-15T19:53:38.413Z,101555.84
2023-08-15T19:56:05.183Z,101557.50
2023-08-15T19:58:31.726Z,101566.69
2023-08-15T20:00:58.808Z,101574.59
2023-08-15T20:03:25.442Z,101570.84
2023-08-15T20:05:51.984Z,101577.72
2023-08-15T20:08:20.280Z,101579.63
2023-08-15T20:10:50.512Z,101576.91
2023-08-15T20:13:17.050Z,101587.97
2023-08-15T20:15:43.645Z,101581.28
2023-08-15T20:18:10.219Z,101584.22
2023-08-15T20:20:36.864Z,101585.47
2023-08-15T20:23:03.516Z,101590.69
2023-08-15T20:25:31.845Z,101590.25
2023-08-15T20:27:58.498Z,101581.72
2023-08-15T20:30:25.686Z,101586.72
2023-08-15T20:32:52.330Z,101592.16
2023-08-15T20:35:18.958Z,101591.09
2023-08-15T20:37:45.644Z,101589.03
2023-08-15T20:40:12.651Z,101592.56
2023-08-15T20:42:40.528Z,101588.59
2023-08-15T20:45:08.506Z,101594.59
2023-08-15T20:47:35.167Z,101600.66
2023-08-15T20:50:01.760Z,101601.47
2023-08-15T20:52:28.332Z,101600.88
2023-08-15T20:54:54.852Z,101603.78
2023-08-15T20:57:21.466Z,101599.22
2023-08-15T20:59:49.528Z,101613.97
2023-08-15T21:02:16.140Z,101610.88
2023-08-15T21:04:42.717Z,101605.66
2023-08-15T21:07:09.354Z,101608.78
2023-08-15T21:09:36.372Z,101595.88
2023-08-15T21:12:03.202Z,101602.97
2023-08-15T21:14:29.792Z,101599.81
2023-08-15T21:16:57.865Z,101598.78
2023-08-15T21:19:24.564Z,101601.94
2023-08-15T21:21:51.148Z,101602.31
2023-08-15T21:24:17.673Z,101602.09
2023-08-15T21:26:45.844Z,101604.56
2023-08-15T21:29:12.369Z,101593.56
2023-08-15T21:31:38.948Z,101593.34
2023-08-15T21:34:06.877Z,101597.50
2023-08-15T21:36:33.396Z,101597.72
2023-08-15T21:38:59.986Z,101598.31
2023-08-15T21:41:26.512Z,101599.34
2023-08-15T21:43:53.081Z,101600.63
2023-08-15T21:46:19.624Z,101605.41
2023-08-15T21:48:46.179Z,101590.22
2023-08-15T21:51:14.086Z,101600.84
2023-08-15T21:53:40.657Z,101604.16
2023-08-15T21:56:07.287Z,101604.97
2023-08-15T21:58:33.792Z,101616.41
2023-08-15T22:01:00.367Z,101608.09
2023-08-15T22:03:26.963Z,101606.63
2023-08-15T22:05:53.573Z,101604.34
2023-08-15T22:08:21.534Z,101604.13
2023-08-15T22:10:48.093Z,101618.25
2023-08-15T22:13:14.956Z,101618.25
2023-08-15T22:15:41.698Z,101620.75
2023-08-15T22:18:19.737Z,101612.44
2023-08-15T22:20:47.486Z,101618.88
2023-08-15T22:23:14.051Z,101628.41
2023-08-15T22:25:45.728Z,101627.81
2023-08-15T22:28:12.256Z,101629.03
2023-08-15T22:30:38.970Z,101624.44
2023-08-15T22:33:06.062Z,101617.81
2023-08-15T22:35:36.358Z,101622.38
2023-08-15T22:38:03.068Z,101630.84
2023-08-15T22:40:29.661Z,101621.72
2023-08-15T22:42:57.568Z,101624.22
2023-08-15T22:45:24.586Z,101623.19
2023-08-15T22:47:51.509Z,101624.03
2023-08-15T22:50:18.122Z,101623.41
2023-08-15T22:52:44.820Z,101615.28
2023-08-15T22:55:11.404Z,101620.91
2023-08-15T22:57:37.943Z,101625.88
2023-08-15T23:00:07.338Z,101626.28
2023-08-15T23:02:33.865Z,101621.53
2023-08-15T23:05:00.438Z,101624.84
2023-08-15T23:07:26.968Z,101625.25
2023-08-15T23:09:53.606Z,101632.97
2023-08-15T23:12:20.147Z,101625.25
2023-08-15T23:14:46.724Z,101629.38
2023-08-15T23:17:14.643Z,101629.38
2023-08-15T23:19:41.179Z,101626.22
2023-08-15T23:22:07.725Z,101619.81
2023-08-15T23:24:34.231Z,101618.13
2023-08-15T23:27:00.785Z,101620.19
2023-08-15T23:29:27.312Z,101624.34
2023-08-15T23:31:53.871Z,101616.00
2023-08-15T23:34:21.778Z,101617.00
2023-08-15T23:36:48.607Z,101604.78
2023-08-15T23:39:15.131Z,101606.84
2023-08-15T23:41:41.667Z,101613.28
2023-08-15T23:44:08.183Z,101616.16
2023-08-15T23:46:34.962Z,101614.09
2023-08-15T23:49:01.516Z,101617.00
2023-08-15T23:51:29.426Z,101610.38
2023-08-15T23:53:55.980Z,101609.34
2023-08-15T23:56:22.487Z,101601.25
2023-08-15T23:58:48.998Z,101608.06
